LFBH/LRH METAR and TAF weather

Enter ICAO airport designator
Station Type Date Time Source
LFBH METAR 2024/04/23 03:30 UTC NOAA

LFBH 230330Z AUTO 04006KT CAVOK 07/04 Q1021 NOSIG


Station Type Date Time Source
LFBH Decoded METAR 2024/04/23 03:30 UTC NOAA

La Rochelle, France (LFBH) 46-09N 001-09W 10M
Apr 22, 2024 - 11:30 PM EDT / 2024.04.23 0330 UTC
Wind: from the NE (040 degrees) at 7 MPH (6 KT):0
Visibility: greater than 7 mile(s):0
Temperature: 44 F (7 C)
Dew Point: 39 F (4 C)
Relative Humidity: 81%
Pressure (altimeter): 30.15 in. Hg (1021 hPa)
ob: LFBH 230330Z AUTO 04006KT CAVOK 07/04 Q1021 NOSIG
cycle: 3

Station Type Date Time Source
LFBH TAF 2024/04/22 18:42 UTC NOAA